HSKO2: Arkansas River, Haskell, OK

Data processed at Mon Sep 24 2018 21:32


All information presented herein is the property of the government of the United States of America and may be revised or deleted at any time without prior notice.
Dissemination of this information without the expressed written consent of the Public Affairs Office, Tulsa District U.S. Army Corps of Engineers is strictly prohibited.
These data are gathered electronically and, as presented, have not undergone any form of quality control. These data are not guaranteed to be valid or correct.
Go to home page.
Go to station list.
Go to home page.

Upstream stations:

Downstream station:
Previous Day
Next Day
Current Day
    
SHEF ID:       HSKO2     Arkansas River near Haskell, OK
STATION TYPE:  

               PRECIP     STAGE  STAGE(2)  RIV-FLOW  BAT-LOAD
                   in        ft        ft       cfs      volt
              Ccp-Rev   Ccp-Rev   Ccp-Rev   Ccp-Rev   Ccp-Rev
(US/Central)
09/24 00:00      0.00      4.15      4.13      2883     12.49
09/24 01:00      0.00      4.09      4.08      2753     12.49
09/24 02:00      0.00      4.04      4.02      2645     12.49
09/24 03:00      0.00      3.99      3.97      2537     12.49
09/24 04:00      0.00      3.95      3.92      2451     12.49
09/24 05:00      0.00      3.93      3.90      2407     12.49
09/24 06:00      0.00      3.99      3.94      2537     12.49
09/24 07:00      0.00      4.14      4.13      2861     12.49
09/24 08:00      0.00      4.42      4.36      3481     12.49
09/24 09:00      0.00      4.73      4.73      4191     12.49
09/24 10:00      0.00      5.00      4.95      4855     12.81
09/24 11:00      0.00      5.22      5.13      5434     13.05
09/24 12:00      0.00      5.38      5.27      5875     13.44
09/24 13:00      0.00      5.49      5.41      6258     13.37
09/24 14:00      0.00      5.57      5.46      6550     13.21
09/24 15:00      0.00      5.62      5.57      6735     13.53
09/24 16:00      0.00      5.66      5.57      6886     13.21
09/24 17:00      0.00      5.69      5.59      7000     13.05
09/24 18:00      0.00      5.71      5.62      7076     13.05
09/24 19:00      0.00      5.72      5.64      7114     13.05
09/24 20:00      0.00      5.73      5.65      7153     12.81
09/24 21:00      0.00      5.74      5.64      7191     12.57
09/24 22:00      ----      ----      ----      ----      ----
09/24 23:00      ----      ----      ----      ----      ----